Time;durP1;ratioP1;P1;durP2;ratioP2;P2;SDS_P1;SDS_P2;PMS_P1;PMS_P2;Temp;Humidity;BMP_temperature;BMP_pressure;BME280_temperature;BME280_humidity;BME280_pressure;Samples;Min_cycle;Max_cycle;Signal;HPM_P1;HPM_P2
2022/08/16 00:00:44;;;;;;;;;;;20.10;99.90;;;;;;5075507;28;19975;-77
2022/08/16 00:03:10;;;;;;;;;;;20.20;99.90;;;;;;5074717;28;19970;-76
2022/08/16 00:05:36;;;;;;;;;;;20.10;99.90;;;;;;5063023;28;19916;-77
2022/08/16 00:08:02;;;;;;;;;;;20.10;99.90;;;;;;5067100;28;19928;-76
2022/08/16 00:10:31;;;;;;;;;;;20.10;99.90;;;;;;5074153;28;19917;-77
2022/08/16 00:12:57;;;;;;;;;;;20.10;99.90;;;;;;5071453;28;19917;-76
2022/08/16 00:15:25;;;;;;;;;;;20.10;99.90;;;;;;5081788;28;19917;-75
2022/08/16 00:17:51;;;;;;;;;;;20.00;99.90;;;;;;5074433;28;19920;-76
2022/08/16 00:20:17;;;;;;;;;;;20.00;99.90;;;;;;5075943;28;19999;-76
2022/08/16 00:22:43;;;;;;;;;;;19.90;99.90;;;;;;5072070;28;20243;-76
2022/08/16 00:25:11;;;;;;;;;;;19.80;99.90;;;;;;5074866;28;19916;-77
2022/08/16 00:27:37;;;;;;;;;;;19.80;99.90;;;;;;5071191;28;19998;-76
2022/08/16 00:30:03;;;;;;;;;;;19.70;99.90;;;;;;5073449;28;19924;-76
2022/08/16 00:32:29;;;;;;;;;;;19.70;99.90;;;;;;5073883;28;20003;-76
2022/08/16 00:34:54;;;;;;;;;;;19.70;99.90;;;;;;5073695;28;20004;-75
2022/08/16 00:37:21;;;;;;;;;;;19.70;99.90;;;;;;5072783;28;19913;-76
2022/08/16 00:39:47;;;;;;;;;;;19.70;99.90;;;;;;5073906;28;19916;-76
2022/08/16 00:42:13;;;;;;;;;;;19.70;99.90;;;;;;5073569;28;19919;-76
2022/08/16 00:44:42;;;;;;;;;;;19.70;99.90;;;;;;5072687;28;19917;-76
2022/08/16 00:47:11;;;;;;;;;;;19.70;99.90;;;;;;5072538;28;19920;-76
2022/08/16 00:49:37;;;;;;;;;;;19.60;99.90;;;;;;5073746;28;20334;-76
2022/08/16 00:52:02;;;;;;;;;;;19.50;99.90;;;;;;5073899;28;19942;-76
2022/08/16 00:54:29;;;;;;;;;;;19.50;99.90;;;;;;5072402;28;19916;-76
2022/08/16 00:56:56;;;;;;;;;;;19.50;99.90;;;;;;5071620;28;19916;-77
2022/08/16 00:59:23;;;;;;;;;;;19.40;99.90;;;;;;5074174;28;19917;-77
2022/08/16 01:01:49;;;;;;;;;;;19.30;99.90;;;;;;5074576;28;19969;-76
2022/08/16 01:04:17;;;;;;;;;;;19.20;99.90;;;;;;5073691;28;20219;-77
2022/08/16 01:06:43;;;;;;;;;;;19.20;99.90;;;;;;5072181;28;19966;-77
2022/08/16 01:09:08;;;;;;;;;;;19.20;99.90;;;;;;5072353;28;19912;-76
2022/08/16 01:11:35;;;;;;;;;;;19.10;99.90;;;;;;5073977;28;19919;-77
2022/08/16 01:14:04;;;;;;;;;;;19.20;99.90;;;;;;5072716;28;19915;-77
2022/08/16 01:16:30;;;;;;;;;;;19.20;99.90;;;;;;5074177;28;19920;-77
2022/08/16 01:18:59;;;;;;;;;;;19.20;99.90;;;;;;5071073;28;20223;-78
2022/08/16 01:21:34;;;;;;;;;;;19.20;99.90;;;;;;5073205;28;19908;-77
2022/08/16 01:24:06;;;;;;;;;;;19.30;99.90;;;;;;5070459;28;19965;-77
2022/08/16 01:26:33;;;;;;;;;;;19.20;99.90;;;;;;5085044;28;19913;-76
2022/08/16 01:29:00;;;;;;;;;;;19.20;99.90;;;;;;5072333;28;19909;-76
2022/08/16 01:31:27;;;;;;;;;;;19.10;99.90;;;;;;5104082;28;20342;-76
2022/08/16 01:33:52;;;;;;;;;;;19.10;99.90;;;;;;5106257;28;19913;-76
2022/08/16 01:36:18;;;;;;;;;;;19.10;99.90;;;;;;5072582;28;20057;-76
2022/08/16 01:38:45;;;;;;;;;;;19.00;99.90;;;;;;5070581;28;19912;-76
2022/08/16 01:41:16;;;;;;;;;;;18.90;99.90;;;;;;5072853;28;20005;-78
2022/08/16 01:43:43;;;;;;;;;;;18.80;99.90;;;;;;5085278;28;19952;-76
2022/08/16 01:46:17;;;;;;;;;;;18.80;99.90;;;;;;5071066;28;19919;-77
2022/08/16 01:48:43;;;;;;;;;;;18.70;99.90;;;;;;5072386;28;19961;-76
2022/08/16 01:51:09;;;;;;;;;;;18.70;99.90;;;;;;5072637;28;19913;-78
2022/08/16 01:53:35;;;;;;;;;;;18.80;99.90;;;;;;5054762;28;19913;-77
2022/08/16 01:56:01;;;;;;;;;;;19.00;99.90;;;;;;5071693;28;19920;-79
2022/08/16 01:58:27;;;;;;;;;;;19.00;99.90;;;;;;5063037;28;19921;-77
2022/08/16 02:00:52;;;;;;;;;;;19.10;99.90;;;;;;5068809;28;19916;-76
2022/08/16 02:03:18;;;;;;;;;;;19.10;99.90;;;;;;5065194;28;19916;-77
2022/08/16 02:05:43;;;;;;;;;;;19.10;99.90;;;;;;5069590;28;20204;-79
2022/08/16 02:08:09;;;;;;;;;;;19.10;99.90;;;;;;5071857;28;19912;-78
2022/08/16 02:10:35;;;;;;;;;;;19.10;99.90;;;;;;5073847;28;19956;-79
2022/08/16 02:13:02;;;;;;;;;;;19.10;99.90;;;;;;5059987;28;19932;-79
2022/08/16 02:15:30;;;;;;;;;;;19.10;99.90;;;;;;5070308;28;19913;-78
2022/08/16 02:17:57;;;;;;;;;;;19.10;99.90;;;;;;5071361;28;19921;-79
2022/08/16 02:20:22;;;;;;;;;;;19.10;99.90;;;;;;5097540;28;20287;-79
2022/08/16 02:22:48;;;;;;;;;;;19.10;99.90;;;;;;5073190;28;19939;-77
2022/08/16 02:25:14;;;;;;;;;;;19.00;99.90;;;;;;5073860;28;19916;-76
2022/08/16 02:27:41;;;;;;;;;;;19.00;99.90;;;;;;5072471;28;19919;-78
2022/08/16 02:30:11;;;;;;;;;;;18.90;99.90;;;;;;5071518;28;19921;-79
2022/08/16 02:32:36;;;;;;;;;;;18.90;99.90;;;;;;5069037;28;19927;-78
2022/08/16 02:35:03;;;;;;;;;;;18.90;99.90;;;;;;5071355;28;19927;-78
2022/08/16 02:37:28;;;;;;;;;;;18.90;99.90;;;;;;5072385;28;20261;-77
2022/08/16 02:39:54;;;;;;;;;;;18.80;99.90;;;;;;5071801;28;19913;-78
2022/08/16 02:42:19;;;;;;;;;;;18.80;99.90;;;;;;5073263;28;20027;-78
2022/08/16 02:44:45;;;;;;;;;;;18.70;99.90;;;;;;5072336;28;20307;-77
2022/08/16 02:47:10;;;;;;;;;;;18.60;99.90;;;;;;5071635;28;20009;-75
2022/08/16 02:49:36;;;;;;;;;;;18.60;99.90;;;;;;5070974;28;19916;-78
2022/08/16 02:52:02;;;;;;;;;;;18.50;99.90;;;;;;5072454;28;20307;-75
2022/08/16 02:54:27;;;;;;;;;;;18.50;99.90;;;;;;5069841;28;19928;-76
2022/08/16 02:56:59;;;;;;;;;;;18.50;99.90;;;;;;5073580;28;19912;-76
2022/08/16 02:59:26;;;;;;;;;;;18.50;99.90;;;;;;5073716;28;19912;-78
2022/08/16 03:01:52;;;;;;;;;;;18.40;99.90;;;;;;5074720;28;20007;-78
2022/08/16 03:04:17;;;;;;;;;;;18.50;99.90;;;;;;5075493;28;20023;-78
2022/08/16 03:06:43;;;;;;;;;;;18.40;99.90;;;;;;5074757;28;19931;-76
2022/08/16 03:09:09;;;;;;;;;;;18.40;99.90;;;;;;5077170;28;20023;-75
2022/08/16 03:11:35;;;;;;;;;;;18.40;99.90;;;;;;5075671;28;19920;-77
2022/08/16 03:14:01;;;;;;;;;;;18.40;99.90;;;;;;5071551;28;19916;-75
2022/08/16 03:16:26;;;;;;;;;;;18.30;99.90;;;;;;5076940;28;19927;-76
2022/08/16 03:18:52;;;;;;;;;;;18.30;99.90;;;;;;5076126;28;20022;-76
2022/08/16 03:21:18;;;;;;;;;;;18.30;99.90;;;;;;5075741;28;19912;-77
2022/08/16 03:23:44;;;;;;;;;;;18.20;99.90;;;;;;5075269;28;20305;-76
2022/08/16 03:26:09;;;;;;;;;;;18.10;99.90;;;;;;5076767;28;19958;-77
2022/08/16 03:28:35;;;;;;;;;;;18.20;99.90;;;;;;5076731;28;19915;-77
2022/08/16 03:31:01;;;;;;;;;;;18.20;99.90;;;;;;5072559;28;20008;-78
2022/08/16 03:33:26;;;;;;;;;;;18.20;99.90;;;;;;5074016;28;19922;-76
2022/08/16 03:35:58;;;;;;;;;;;18.10;99.90;;;;;;5073806;28;19917;-78
2022/08/16 03:38:24;;;;;;;;;;;18.00;99.90;;;;;;5074257;28;19913;-79
2022/08/16 03:40:50;;;;;;;;;;;17.90;99.90;;;;;;5073877;28;20192;-77
2022/08/16 03:43:15;;;;;;;;;;;17.90;99.90;;;;;;5075207;28;20007;-76
2022/08/16 03:45:41;;;;;;;;;;;17.90;99.90;;;;;;5076125;28;20291;-77
2022/08/16 03:48:08;;;;;;;;;;;17.90;99.90;;;;;;5075133;28;19994;-76
2022/08/16 03:50:34;;;;;;;;;;;17.90;99.90;;;;;;5074853;28;20303;-74
2022/08/16 03:53:00;;;;;;;;;;;17.90;99.90;;;;;;5074271;28;19912;-76
2022/08/16 03:55:26;;;;;;;;;;;17.80;99.90;;;;;;5076270;28;19912;-73
2022/08/16 03:57:52;;;;;;;;;;;17.80;99.90;;;;;;5073261;28;19962;-77
2022/08/16 04:00:24;;;;;;;;;;;17.90;99.90;;;;;;5075260;28;19920;-77
2022/08/16 04:02:49;;;;;;;;;;;17.80;99.90;;;;;;5075199;28;19984;-77
2022/08/16 04:05:16;;;;;;;;;;;17.90;99.90;;;;;;5074576;28;20231;-79
2022/08/16 04:07:42;;;;;;;;;;;17.90;99.90;;;;;;5062687;28;20017;-77
2022/08/16 04:10:08;;;;;;;;;;;17.90;99.90;;;;;;5057573;28;19925;-77
2022/08/16 04:12:34;;;;;;;;;;;17.90;99.90;;;;;;5073614;28;19931;-79
2022/08/16 04:15:01;;;;;;;;;;;17.90;99.90;;;;;;5074026;28;20351;-78
2022/08/16 04:17:27;;;;;;;;;;;17.90;99.90;;;;;;5073252;28;19924;-77
2022/08/16 04:19:52;;;;;;;;;;;17.90;99.90;;;;;;5070557;28;19937;-75
2022/08/16 04:22:18;;;;;;;;;;;17.90;99.90;;;;;;5075664;28;20314;-77
2022/08/16 04:24:44;;;;;;;;;;;17.90;99.90;;;;;;5074834;28;19917;-78
2022/08/16 04:27:10;;;;;;;;;;;17.90;99.90;;;;;;5074736;28;19909;-78
2022/08/16 04:29:35;;;;;;;;;;;18.00;99.90;;;;;;5074040;28;19913;-79
2022/08/16 04:32:01;;;;;;;;;;;18.10;99.90;;;;;;5071574;28;20012;-77
2022/08/16 04:34:28;;;;;;;;;;;18.10;99.90;;;;;;5071229;28;19922;-77
2022/08/16 04:36:54;;;;;;;;;;;18.10;99.90;;;;;;5071494;28;20330;-78
2022/08/16 04:39:19;;;;;;;;;;;18.20;99.90;;;;;;5072523;28;19912;-77
2022/08/16 04:41:45;;;;;;;;;;;18.20;99.90;;;;;;5073001;28;19996;-77
2022/08/16 04:44:12;;;;;;;;;;;18.30;99.90;;;;;;5072405;28;19924;-79
2022/08/16 04:46:37;;;;;;;;;;;18.40;99.90;;;;;;5073495;28;19928;-77
2022/08/16 04:49:03;;;;;;;;;;;18.50;99.90;;;;;;5072603;28;19912;-76
2022/08/16 04:51:29;;;;;;;;;;;18.60;99.90;;;;;;5072933;28;19935;-76
2022/08/16 04:53:55;;;;;;;;;;;18.70;99.90;;;;;;5073635;28;19912;-77
2022/08/16 04:56:20;;;;;;;;;;;18.80;99.90;;;;;;5072035;28;19916;-75
2022/08/16 04:58:46;;;;;;;;;;;18.80;99.90;;;;;;5072067;28;20107;-76
2022/08/16 05:01:12;;;;;;;;;;;18.90;99.90;;;;;;5071882;28;20011;-75
2022/08/16 05:03:37;;;;;;;;;;;18.90;99.90;;;;;;5073578;28;19921;-74
2022/08/16 05:06:03;;;;;;;;;;;19.00;99.90;;;;;;5072707;28;20231;-75
2022/08/16 05:08:29;;;;;;;;;;;19.00;99.90;;;;;;5072221;28;19916;-75
2022/08/16 05:10:55;;;;;;;;;;;19.00;99.90;;;;;;5073321;28;20078;-75
2022/08/16 05:13:20;;;;;;;;;;;19.10;99.90;;;;;;5071764;28;19917;-75
2022/08/16 05:15:46;;;;;;;;;;;19.10;99.90;;;;;;5072157;28;19917;-74
2022/08/16 05:18:12;;;;;;;;;;;19.10;99.90;;;;;;5071060;28;19962;-75
2022/08/16 05:20:38;;;;;;;;;;;19.10;99.90;;;;;;5072718;28;19920;-75
2022/08/16 05:23:04;;;;;;;;;;;19.10;99.90;;;;;;5065472;28;20318;-75
2022/08/16 05:25:29;;;;;;;;;;;19.10;99.90;;;;;;5073783;28;20376;-75
2022/08/16 05:27:56;;;;;;;;;;;19.10;99.90;;;;;;5070371;28;19909;-75
2022/08/16 05:30:22;;;;;;;;;;;19.20;99.90;;;;;;5073354;28;19917;-75
2022/08/16 05:32:47;;;;;;;;;;;19.20;99.90;;;;;;5073921;28;20007;-75
2022/08/16 05:35:13;;;;;;;;;;;19.20;99.90;;;;;;5072141;28;19915;-76
2022/08/16 05:37:39;;;;;;;;;;;19.20;99.90;;;;;;5071638;28;19909;-75
2022/08/16 05:40:06;;;;;;;;;;;19.30;99.90;;;;;;5072223;28;20267;-75
2022/08/16 05:42:31;;;;;;;;;;;19.30;99.90;;;;;;5070538;28;19920;-75
2022/08/16 05:44:57;;;;;;;;;;;19.30;99.90;;;;;;5068260;28;19921;-75
2022/08/16 05:47:23;;;;;;;;;;;19.40;99.90;;;;;;5068896;28;19917;-75
2022/08/16 05:49:48;;;;;;;;;;;19.40;99.90;;;;;;5066293;28;19915;-75
2022/08/16 05:52:14;;;;;;;;;;;19.40;99.90;;;;;;5070414;28;20207;-75
2022/08/16 05:54:40;;;;;;;;;;;19.40;99.90;;;;;;5069805;28;20011;-74
2022/08/16 05:57:05;;;;;;;;;;;19.50;99.90;;;;;;5072252;28;20007;-75
2022/08/16 05:59:31;;;;;;;;;;;19.60;99.90;;;;;;5068931;28;20293;-75
2022/08/16 06:01:57;;;;;;;;;;;19.60;99.90;;;;;;5071754;28;19920;-75
2022/08/16 06:04:22;;;;;;;;;;;19.60;99.90;;;;;;5073389;28;19927;-74
2022/08/16 06:06:48;;;;;;;;;;;19.70;99.90;;;;;;5068347;28;20007;-75
2022/08/16 06:09:15;;;;;;;;;;;19.70;99.90;;;;;;5071012;28;19945;-74
2022/08/16 06:11:41;;;;;;;;;;;19.70;99.90;;;;;;5069535;28;19917;-74
2022/08/16 06:14:07;;;;;;;;;;;19.70;99.90;;;;;;5069988;28;19924;-74
2022/08/16 06:16:32;;;;;;;;;;;19.70;99.90;;;;;;5071667;28;19932;-74
2022/08/16 06:18:58;;;;;;;;;;;19.80;99.90;;;;;;5071721;28;19913;-74
2022/08/16 06:21:23;;;;;;;;;;;19.80;99.90;;;;;;5071900;28;20299;-74
2022/08/16 06:23:49;;;;;;;;;;;19.80;99.90;;;;;;5070366;28;19913;-75
2022/08/16 06:26:15;;;;;;;;;;;19.90;99.90;;;;;;5071550;28;19920;-74
2022/08/16 06:28:40;;;;;;;;;;;20.00;99.90;;;;;;5071890;28;19912;-74
2022/08/16 06:31:07;;;;;;;;;;;20.10;99.90;;;;;;5073406;28;19917;-74
2022/08/16 06:33:32;;;;;;;;;;;20.10;99.90;;;;;;5075999;28;19913;-74
2022/08/16 06:35:58;;;;;;;;;;;20.20;99.90;;;;;;5075155;28;19924;-75
2022/08/16 06:38:24;;;;;;;;;;;20.20;99.90;;;;;;5076052;28;19921;-75
2022/08/16 06:40:49;;;;;;;;;;;20.20;99.90;;;;;;5074706;28;19912;-74
2022/08/16 06:43:15;;;;;;;;;;;20.30;99.90;;;;;;5074971;28;19920;-74
2022/08/16 06:45:42;;;;;;;;;;;20.40;99.90;;;;;;5074026;28;20041;-74
2022/08/16 06:48:08;;;;;;;;;;;20.50;99.90;;;;;;5074504;28;20278;-75
2022/08/16 06:50:34;;;;;;;;;;;20.50;99.90;;;;;;5072788;28;19923;-74
2022/08/16 06:53:00;;;;;;;;;;;20.60;99.90;;;;;;5073180;28;20212;-74
2022/08/16 06:55:26;;;;;;;;;;;20.60;99.90;;;;;;5074610;28;19913;-74
2022/08/16 06:57:52;;;;;;;;;;;20.60;99.90;;;;;;5075331;28;19916;-74
2022/08/16 07:00:18;;;;;;;;;;;20.70;99.90;;;;;;5075716;28;20323;-74
2022/08/16 07:02:44;;;;;;;;;;;20.70;99.90;;;;;;5072293;28;19920;-74
2022/08/16 07:05:10;;;;;;;;;;;20.80;99.90;;;;;;5072845;28;19916;-75
2022/08/16 07:07:36;;;;;;;;;;;20.80;99.90;;;;;;5075213;28;20530;-75
2022/08/16 07:10:04;;;;;;;;;;;20.90;99.90;;;;;;5073926;28;19965;-74
2022/08/16 07:12:29;;;;;;;;;;;21.00;99.90;;;;;;5073202;28;19913;-75
2022/08/16 07:14:56;;;;;;;;;;;21.10;99.90;;;;;;5073834;28;20385;-75
2022/08/16 07:17:23;;;;;;;;;;;21.20;99.90;;;;;;5073423;28;19928;-75
2022/08/16 07:19:49;;;;;;;;;;;21.30;99.90;;;;;;5073038;28;20530;-74
2022/08/16 07:22:15;;;;;;;;;;;21.40;99.90;;;;;;5075388;28;19913;-75
2022/08/16 07:24:43;;;;;;;;;;;21.70;99.90;;;;;;5074066;28;19999;-74
2022/08/16 07:27:08;;;;;;;;;;;22.00;99.90;;;;;;5074528;28;19987;-74
2022/08/16 07:29:34;;;;;;;;;;;22.50;99.90;;;;;;5072143;28;20265;-74
2022/08/16 07:32:00;;;;;;;;;;;23.00;99.90;;;;;;5073468;28;20012;-74
2022/08/16 07:34:26;;;;;;;;;;;23.30;99.90;;;;;;5074088;28;19942;-75
2022/08/16 07:36:52;;;;;;;;;;;23.60;99.90;;;;;;5075214;28;19965;-74
2022/08/16 07:39:18;;;;;;;;;;;24.00;99.90;;;;;;5075095;28;19969;-74
2022/08/16 07:41:44;;;;;;;;;;;24.30;99.90;;;;;;5073830;28;19986;-75
2022/08/16 07:44:10;;;;;;;;;;;24.60;99.90;;;;;;5074331;28;20298;-75
2022/08/16 07:46:35;;;;;;;;;;;24.70;99.90;;;;;;5072394;28;20219;-75
2022/08/16 07:49:03;;;;;;;;;;;24.80;99.90;;;;;;5075460;28;19916;-75
2022/08/16 07:51:33;;;;;;;;;;;24.80;99.90;;;;;;5073429;28;20375;-75
2022/08/16 07:54:01;;;;;;;;;;;24.90;99.90;;;;;;5074047;28;19994;-74
2022/08/16 07:56:27;;;;;;;;;;;25.00;99.90;;;;;;5072893;28;19917;-75
2022/08/16 07:58:54;;;;;;;;;;;25.30;99.90;;;;;;5073448;28;19923;-74
2022/08/16 08:01:22;;;;;;;;;;;25.50;99.90;;;;;;5072173;28;19913;-76
2022/08/16 08:03:48;;;;;;;;;;;25.70;99.90;;;;;;5074011;28;20223;-75
2022/08/16 08:06:13;;;;;;;;;;;25.80;99.90;;;;;;5072477;28;19966;-75
2022/08/16 08:08:40;;;;;;;;;;;25.90;99.90;;;;;;5074565;28;19913;-75
2022/08/16 08:11:05;;;;;;;;;;;25.90;99.90;;;;;;5074320;28;19924;-75
2022/08/16 08:13:31;;;;;;;;;;;25.80;99.90;;;;;;5072332;28;20348;-74
2022/08/16 08:15:57;;;;;;;;;;;25.70;99.90;;;;;;5072608;28;19917;-75
2022/08/16 08:18:22;;;;;;;;;;;25.60;99.90;;;;;;5073653;28;19966;-74
2022/08/16 08:20:48;;;;;;;;;;;25.80;99.90;;;;;;5073867;28;19920;-74
2022/08/16 08:23:14;;;;;;;;;;;25.90;99.90;;;;;;5071835;28;19966;-75
2022/08/16 08:25:40;;;;;;;;;;;26.10;99.90;;;;;;5072051;28;20315;-75
2022/08/16 08:28:05;;;;;;;;;;;26.20;99.90;;;;;;5073550;28;19920;-75
2022/08/16 08:30:31;;;;;;;;;;;26.40;99.90;;;;;;5072702;28;19935;-75
2022/08/16 08:32:57;;;;;;;;;;;26.50;99.90;;;;;;5072312;28;19923;-75
2022/08/16 08:35:23;;;;;;;;;;;26.70;99.90;;;;;;5070848;28;20428;-76
2022/08/16 08:37:48;;;;;;;;;;;26.70;99.90;;;;;;5103739;28;19916;-75
2022/08/16 08:40:14;;;;;;;;;;;26.80;99.90;;;;;;5072280;28;19917;-75
2022/08/16 08:42:42;;;;;;;;;;;27.00;99.90;;;;;;5074731;28;19995;-75
2022/08/16 08:45:09;;;;;;;;;;;27.20;99.90;;;;;;5074001;28;19963;-75
2022/08/16 08:47:35;;;;;;;;;;;27.30;99.90;;;;;;5073551;28;19999;-76
2022/08/16 08:50:01;;;;;;;;;;;27.50;99.90;;;;;;5075267;28;20308;-75
2022/08/16 08:52:27;;;;;;;;;;;27.50;99.90;;;;;;5074346;28;20053;-75
2022/08/16 08:54:53;;;;;;;;;;;27.50;99.90;;;;;;5105072;28;19999;-76
2022/08/16 08:57:19;;;;;;;;;;;27.50;99.90;;;;;;5074909;28;20265;-76
2022/08/16 08:59:47;;;;;;;;;;;27.70;99.90;;;;;;5074547;28;20371;-76
2022/08/16 09:02:15;;;;;;;;;;;27.90;99.90;;;;;;5072780;28;19990;-75
2022/08/16 09:04:44;;;;;;;;;;;28.00;99.90;;;;;;5068211;28;19924;-75
2022/08/16 09:07:10;;;;;;;;;;;28.10;99.90;;;;;;5069699;28;19999;-77
2022/08/16 09:09:36;;;;;;;;;;;28.10;99.90;;;;;;5072410;28;19919;-76
2022/08/16 09:12:03;;;;;;;;;;;28.10;99.90;;;;;;5073295;28;19917;-77
2022/08/16 09:14:30;;;;;;;;;;;28.10;99.90;;;;;;5069062;28;20196;-76
2022/08/16 09:16:55;;;;;;;;;;;28.10;99.90;;;;;;5071223;28;19928;-76
2022/08/16 09:19:21;;;;;;;;;;;28.10;99.90;;;;;;5065302;28;19916;-77
2022/08/16 09:21:50;;;;;;;;;;;28.10;99.90;;;;;;5089523;28;19927;-76
2022/08/16 09:24:16;;;;;;;;;;;28.30;99.90;;;;;;5072532;28;19920;-75
2022/08/16 09:26:41;;;;;;;;;;;28.30;99.90;;;;;;5073774;28;20365;-75
2022/08/16 09:29:07;;;;;;;;;;;28.30;99.90;;;;;;5074323;28;19920;-75
2022/08/16 09:31:32;;;;;;;;;;;28.30;99.90;;;;;;5072940;28;19920;-77
2022/08/16 09:34:00;;;;;;;;;;;28.30;99.90;;;;;;5067280;28;20230;-77
2022/08/16 09:36:26;;;;;;;;;;;28.40;99.90;;;;;;5065236;28;19912;-75
2022/08/16 09:38:52;;;;;;;;;;;28.50;99.90;;;;;;5071805;28;19916;-75
2022/08/16 09:41:18;;;;;;;;;;;28.60;99.90;;;;;;5071726;28;19944;-75
2022/08/16 09:43:44;;;;;;;;;;;28.60;99.90;;;;;;5072229;28;19912;-75
2022/08/16 09:46:10;;;;;;;;;;;28.60;99.90;;;;;;5072224;28;19924;-75
2022/08/16 09:48:38;;;;;;;;;;;28.60;99.90;;;;;;5073404;28;19913;-78
2022/08/16 09:51:04;;;;;;;;;;;28.70;99.90;;;;;;5071744;28;19913;-75
2022/08/16 09:53:31;;;;;;;;;;;28.80;99.90;;;;;;5071520;28;20273;-76
2022/08/16 09:55:57;;;;;;;;;;;28.90;99.90;;;;;;5071543;28;20231;-75
2022/08/16 09:58:23;;;;;;;;;;;28.80;99.90;;;;;;5072504;28;20417;-75
2022/08/16 10:00:50;;;;;;;;;;;28.90;99.90;;;;;;5072019;28;19916;-77
2022/08/16 10:03:19;;;;;;;;;;;28.90;99.90;;;;;;5070264;28;19913;-75
2022/08/16 10:05:45;;;;;;;;;;;28.90;99.90;;;;;;5072070;28;19970;-75
2022/08/16 10:08:11;;;;;;;;;;;28.90;99.90;;;;;;5074795;28;19912;-75
2022/08/16 10:10:40;;;;;;;;;;;28.90;99.90;;;;;;5076463;28;20020;-75
2022/08/16 10:13:13;;;;;;;;;;;28.90;99.90;;;;;;5075352;28;19938;-75
2022/08/16 10:15:43;;;;;;;;;;;28.90;99.90;;;;;;5075872;28;19912;-75
2022/08/16 10:18:09;;;;;;;;;;;28.90;99.90;;;;;;5073909;28;20420;-75
2022/08/16 10:20:39;;;;;;;;;;;29.00;99.90;;;;;;5070501;28;19912;-74
2022/08/16 10:23:06;;;;;;;;;;;29.10;99.90;;;;;;5068616;28;19935;-75
2022/08/16 10:25:33;;;;;;;;;;;29.20;99.90;;;;;;5068514;28;20307;-75
2022/08/16 10:27:59;;;;;;;;;;;29.30;99.90;;;;;;5074492;28;20376;-75
2022/08/16 10:30:24;;;;;;;;;;;29.30;99.90;;;;;;5075817;28;19913;-75
2022/08/16 10:32:50;;;;;;;;;;;29.20;99.90;;;;;;5074500;28;19913;-75
2022/08/16 10:35:15;;;;;;;;;;;29.00;99.90;;;;;;5075270;28;20317;-75
2022/08/16 10:37:41;;;;;;;;;;;29.00;99.90;;;;;;5075009;28;19999;-75
2022/08/16 10:40:08;;;;;;;;;;;29.00;99.90;;;;;;5077439;28;19912;-74
2022/08/16 10:42:33;;;;;;;;;;;28.90;99.90;;;;;;5070830;28;20258;-74
2022/08/16 10:44:59;;;;;;;;;;;28.90;99.90;;;;;;5073206;28;19920;-75
2022/08/16 10:47:25;;;;;;;;;;;28.90;99.90;;;;;;5074665;28;19913;-74
2022/08/16 10:49:50;;;;;;;;;;;28.80;99.90;;;;;;5074767;28;20004;-74
2022/08/16 10:52:16;;;;;;;;;;;28.80;99.90;;;;;;5074425;28;19921;-74
2022/08/16 10:54:41;;;;;;;;;;;28.90;99.90;;;;;;5074453;28;19978;-74
2022/08/16 10:57:07;;;;;;;;;;;29.00;99.90;;;;;;5076348;28;19961;-74
2022/08/16 10:59:33;;;;;;;;;;;29.20;99.90;;;;;;5075698;28;19916;-75
2022/08/16 11:01:59;;;;;;;;;;;29.30;99.90;;;;;;5074413;28;20190;-75
2022/08/16 11:04:25;;;;;;;;;;;29.30;99.90;;;;;;5074447;28;19925;-74
2022/08/16 11:06:51;;;;;;;;;;;29.20;99.90;;;;;;5073946;28;19912;-75
2022/08/16 11:09:17;;;;;;;;;;;29.20;99.90;;;;;;5075666;28;20273;-75
2022/08/16 11:11:42;;;;;;;;;;;29.30;99.90;;;;;;5074088;28;19923;-74
2022/08/16 11:14:08;;;;;;;;;;;29.40;99.90;;;;;;5075940;28;19920;-75
2022/08/16 11:16:34;;;;;;;;;;;29.40;99.90;;;;;;5072380;28;20342;-75
2022/08/16 11:18:59;;;;;;;;;;;29.30;99.90;;;;;;5074166;28;19916;-75
2022/08/16 11:21:25;;;;;;;;;;;29.10;99.90;;;;;;5074254;28;20295;-75
2022/08/16 11:23:52;;;;;;;;;;;28.90;99.90;;;;;;5075211;28;19936;-75
2022/08/16 11:26:18;;;;;;;;;;;28.80;99.90;;;;;;5074169;28;19920;-75
2022/08/16 11:28:43;;;;;;;;;;;28.60;99.90;;;;;;5072245;28;19913;-75
2022/08/16 11:31:09;;;;;;;;;;;28.40;99.90;;;;;;5075231;28;19970;-75
2022/08/16 11:33:35;;;;;;;;;;;28.20;99.90;;;;;;5074804;28;20288;-75
2022/08/16 11:36:01;;;;;;;;;;;28.00;99.90;;;;;;5074489;28;19995;-76
2022/08/16 11:38:27;;;;;;;;;;;28.00;99.90;;;;;;5074022;28;19947;-75
2022/08/16 11:40:57;;;;;;;;;;;28.00;99.90;;;;;;5073705;28;19967;-76
2022/08/16 11:43:25;;;;;;;;;;;28.00;99.90;;;;;;5073948;28;20437;-75
2022/08/16 11:45:51;;;;;;;;;;;28.10;99.90;;;;;;5073790;28;19922;-75
2022/08/16 11:48:18;;;;;;;;;;;28.30;99.90;;;;;;5074912;28;20373;-74
2022/08/16 11:50:44;;;;;;;;;;;28.50;99.90;;;;;;5073233;28;20192;-76
2022/08/16 11:53:09;;;;;;;;;;;28.80;99.90;;;;;;5073259;28;20006;-75
2022/08/16 11:55:36;;;;;;;;;;;29.20;99.90;;;;;;5073334;28;20254;-75
2022/08/16 11:58:02;;;;;;;;;;;29.50;99.90;;;;;;5073567;28;19924;-75
2022/08/16 12:00:30;;;;;;;;;;;29.80;99.90;;;;;;5074877;28;19936;-76
2022/08/16 12:02:55;;;;;;;;;;;30.10;99.90;;;;;;5087454;28;19912;-76
2022/08/16 12:05:21;;;;;;;;;;;30.20;99.90;;;;;;5074517;28;20386;-74
2022/08/16 12:07:47;;;;;;;;;;;30.30;99.90;;;;;;5071818;28;19924;-74
2022/08/16 12:10:14;;;;;;;;;;;30.40;99.90;;;;;;5074016;28;20200;-76
2022/08/16 12:12:41;;;;;;;;;;;30.50;99.40;;;;;;5073353;28;20315;-75
2022/08/16 12:15:06;;;;;;;;;;;30.60;99.90;;;;;;5073683;28;19913;-75
2022/08/16 12:17:32;;;;;;;;;;;30.60;99.90;;;;;;5072255;28;20374;-76
2022/08/16 12:19:59;;;;;;;;;;;30.70;99.70;;;;;;5074067;28;19921;-76
2022/08/16 12:22:25;;;;;;;;;;;30.80;99.90;;;;;;5074109;28;19912;-75
2022/08/16 12:24:50;;;;;;;;;;;30.90;99.80;;;;;;5073360;28;19916;-74
2022/08/16 12:27:16;;;;;;;;;;;30.90;99.60;;;;;;5073257;28;19916;-75
2022/08/16 12:29:41;;;;;;;;;;;31.00;98.70;;;;;;5070912;28;19923;-76
2022/08/16 12:32:07;;;;;;;;;;;30.90;99.60;;;;;;5073856;28;19916;-74
2022/08/16 12:34:33;;;;;;;;;;;30.90;98.80;;;;;;5063664;28;19916;-74
2022/08/16 12:37:01;;;;;;;;;;;30.70;98.20;;;;;;5012757;28;20584;-75
2022/08/16 12:39:27;;;;;;;;;;;30.70;99.40;;;;;;5009479;28;20009;-74
2022/08/16 12:41:52;;;;;;;;;;;30.50;98.00;;;;;;5009451;28;20711;-75
2022/08/16 12:44:18;;;;;;;;;;;30.30;99.70;;;;;;5007948;28;20832;-75
2022/08/16 12:48:56;;;;;;;;;;;30.10;99.60;;;;;;5008317;28;19952;-73
2022/08/16 12:49:29;;;;;;;;;;;29.90;99.50;;;;;;5004872;28;20884;-74
2022/08/16 12:51:55;;;;;;;;;;;29.80;99.90;;;;;;5001998;28;19920;-74
2022/08/16 12:54:21;;;;;;;;;;;29.50;99.90;;;;;;5031953;28;20058;-75
2022/08/16 12:56:46;;;;;;;;;;;29.30;99.80;;;;;;5006653;28;19942;-75
2022/08/16 12:59:13;;;;;;;;;;;29.10;99.90;;;;;;5008296;28;19966;-75
2022/08/16 13:01:40;;;;;;;;;;;28.90;99.90;;;;;;5009198;28;20015;-75
2022/08/16 13:04:06;;;;;;;;;;;28.80;99.90;;;;;;5006979;28;19971;-74
2022/08/16 13:06:32;;;;;;;;;;;28.80;99.90;;;;;;5007467;28;20030;-74
2022/08/16 13:09:01;;;;;;;;;;;28.70;99.90;;;;;;5006154;28;19921;-74
2022/08/16 13:11:39;;;;;;;;;;;28.70;99.90;;;;;;5011144;28;20006;-74
2022/08/16 13:14:05;;;;;;;;;;;28.70;99.90;;;;;;5008815;28;20270;-74
2022/08/16 13:16:30;;;;;;;;;;;28.60;99.90;;;;;;5007882;28;19973;-75
2022/08/16 13:18:56;;;;;;;;;;;28.60;99.90;;;;;;5009515;28;19916;-74
2022/08/16 13:21:21;;;;;;;;;;;28.60;99.90;;;;;;5001988;28;20458;-74
2022/08/16 13:23:47;;;;;;;;;;;28.60;99.90;;;;;;5002930;28;19919;-74
2022/08/16 13:26:12;;;;;;;;;;;28.70;99.90;;;;;;5001128;28;19924;-74
2022/08/16 13:28:38;;;;;;;;;;;28.80;99.90;;;;;;5000026;28;20384;-74
2022/08/16 13:31:04;;;;;;;;;;;28.80;99.90;;;;;;4997330;28;19917;-74
2022/08/16 13:33:35;;;;;;;;;;;29.00;99.90;;;;;;4997786;28;19916;-74
2022/08/16 13:36:02;;;;;;;;;;;29.10;99.90;;;;;;4997310;28;19970;-74
2022/08/16 13:38:27;;;;;;;;;;;29.20;99.90;;;;;;4997416;28;19921;-74
2022/08/16 13:40:54;;;;;;;;;;;29.20;99.90;;;;;;5013977;28;19923;-75
2022/08/16 13:43:21;;;;;;;;;;;29.10;99.90;;;;;;4997369;28;19924;-74
2022/08/16 13:45:47;;;;;;;;;;;29.00;99.90;;;;;;4999464;28;19924;-73
2022/08/16 13:48:13;;;;;;;;;;;29.00;99.90;;;;;;4993320;28;19943;-74
2022/08/16 13:50:38;;;;;;;;;;;28.90;99.90;;;;;;5000585;28;19944;-74
2022/08/16 13:53:04;;;;;;;;;;;28.70;99.90;;;;;;5020508;28;19913;-74
2022/08/16 13:55:29;;;;;;;;;;;28.60;99.90;;;;;;5001276;28;19924;-74
2022/08/16 13:57:55;;;;;;;;;;;28.50;99.90;;;;;;5010250;28;20010;-74
2022/08/16 14:00:21;;;;;;;;;;;28.50;99.90;;;;;;5005357;28;19920;-74
2022/08/16 14:02:47;;;;;;;;;;;28.50;99.90;;;;;;4999544;28;19916;-75
2022/08/16 14:05:13;;;;;;;;;;;28.40;99.90;;;;;;5002530;28;19920;-74
2022/08/16 14:07:39;;;;;;;;;;;28.40;99.90;;;;;;5001766;28;19917;-75
2022/08/16 14:10:05;;;;;;;;;;;28.40;99.90;;;;;;5007099;28;19923;-74